Terminal Aerodrome Forecast
Issued by NWS

Home | Current Version | Previous Version | Graphics & Text | Print | Product List | Glossary On
Versions: 1 2 3 4 5 6 7 8 9 10 11
000
FTUS43 KPAH 132324
TAFCGI
TAF
KCGI 132324Z 1400/1424 24009KT P6SM SKC
     FM140300 29007KT P6SM FEW040
     FM140800 32008KT P6SM SCT028
     FM141400 35007KT P6SM SCT200=

USA.gov is the U.S. government's official web portal to all federal, state and local government web resources and services.